Time;durP1;ratioP1;P1;durP2;ratioP2;P2;SDS_P1;SDS_P2;PMS_P1;PMS_P2;Temp;Humidity;BMP_temperature;BMP_pressure;BME280_temperature;BME280_humidity;BME280_pressure;Samples;Min_cycle;Max_cycle;Signal;HPM_P1;HPM_P2
2023/08/02 00:00:38;;;;;;;4.03;2.00;;;15.00;99.90;;;;;;4965237;28;20027;-83
2023/08/02 00:03:03;;;;;;;3.35;2.25;;;15.00;99.90;;;;;;4964192;28;20122;-82
2023/08/02 00:05:29;;;;;;;4.13;2.13;;;15.00;99.90;;;;;;4968446;28;20140;-83
2023/08/02 00:07:55;;;;;;;4.05;2.15;;;15.00;99.90;;;;;;4967234;28;20047;-83
2023/08/02 00:10:21;;;;;;;4.28;2.08;;;14.90;99.90;;;;;;4970426;28;20110;-83
2023/08/02 00:12:48;;;;;;;3.60;1.92;;;14.90;99.90;;;;;;4968686;28;20375;-83
2023/08/02 00:15:14;;;;;;;4.75;2.08;;;14.90;99.90;;;;;;4969614;28;20028;-82
2023/08/02 00:17:39;;;;;;;4.80;2.50;;;14.90;99.90;;;;;;4968997;28;20490;-82
2023/08/02 00:20:06;;;;;;;2.67;1.90;;;14.80;99.90;;;;;;4970417;28;20035;-83
2023/08/02 00:22:31;;;;;;;4.50;1.92;;;14.80;99.90;;;;;;4969085;28;20042;-83
2023/08/02 00:24:57;;;;;;;5.70;2.00;;;14.80;99.90;;;;;;4969811;28;20214;-81
2023/08/02 00:27:22;;;;;;;3.58;1.83;;;14.70;99.90;;;;;;4968621;28;20086;-83
2023/08/02 00:29:49;;;;;;;3.20;1.85;;;14.70;99.90;;;;;;4969446;28;20038;-83
2023/08/02 00:32:15;;;;;;;6.35;2.25;;;14.70;99.90;;;;;;4967142;28;20023;-82
2023/08/02 00:34:40;;;;;;;3.22;2.15;;;14.70;99.90;;;;;;4969442;28;20033;-83
2023/08/02 00:37:06;;;;;;;4.47;2.10;;;14.60;99.90;;;;;;4982209;28;20084;-83
2023/08/02 00:39:32;;;;;;;4.97;2.20;;;14.60;99.90;;;;;;4968540;28;20035;-82
2023/08/02 00:41:57;;;;;;;6.38;2.40;;;14.60;99.90;;;;;;4968237;28;20039;-83
2023/08/02 00:44:23;;;;;;;4.43;2.15;;;14.60;99.90;;;;;;4969011;28;20023;-82
2023/08/02 00:46:48;;;;;;;5.68;2.30;;;14.60;99.90;;;;;;4967812;28;20094;-83
2023/08/02 00:49:14;;;;;;;4.93;2.60;;;14.60;99.90;;;;;;4968653;28;20035;-83
2023/08/02 00:51:39;;;;;;;4.63;2.55;;;14.50;99.90;;;;;;4968203;28;20037;-83
2023/08/02 00:54:05;;;;;;;4.07;2.58;;;14.50;99.90;;;;;;4967831;28;20035;-82
2023/08/02 00:56:32;;;;;;;4.47;2.10;;;14.50;99.90;;;;;;4967172;28;20024;-82
2023/08/02 00:58:58;;;;;;;6.45;2.60;;;14.50;99.90;;;;;;4968072;28;20094;-83
2023/08/02 01:01:25;;;;;;;4.07;2.22;;;14.50;99.90;;;;;;4967487;28;20027;-83
2023/08/02 01:03:52;;;;;;;4.82;2.80;;;14.50;99.90;;;;;;4968600;28;20043;-82
2023/08/02 01:06:42;;;;;;;6.95;2.47;;;14.50;99.90;;;;;;4967482;28;20027;-83
2023/08/02 01:09:18;;;;;;;4.15;2.63;;;14.40;99.90;;;;;;4969361;28;20502;-82
2023/08/02 01:11:51;;;;;;;3.63;2.30;;;14.50;99.90;;;;;;4968378;28;20022;-83
2023/08/02 01:14:21;;;;;;;4.75;2.42;;;14.50;99.90;;;;;;4967801;28;20033;-83
2023/08/02 01:16:49;;;;;;;4.43;2.33;;;14.50;99.90;;;;;;4967079;28;20026;-83
2023/08/02 01:19:20;;;;;;;4.22;2.50;;;14.40;99.90;;;;;;4967972;28;20206;-83
2023/08/02 01:21:46;;;;;;;9.63;2.30;;;14.50;99.90;;;;;;4968019;28;20023;-83
2023/08/02 01:24:12;;;;;;;5.38;2.30;;;14.40;99.90;;;;;;4967931;28;20027;-83
2023/08/02 01:26:41;;;;;;;5.47;2.33;;;14.50;99.90;;;;;;4967476;28;20122;-83
2023/08/02 01:29:11;;;;;;;4.07;2.28;;;14.40;99.90;;;;;;4967891;28;20039;-82
2023/08/02 01:31:38;;;;;;;5.53;2.33;;;14.40;99.90;;;;;;4967936;28;20043;-83
2023/08/02 01:34:05;;;;;;;4.65;2.75;;;14.40;99.90;;;;;;4966996;28;20027;-83
2023/08/02 01:36:31;;;;;;;5.88;2.55;;;14.40;99.90;;;;;;4966732;28;20049;-83
2023/08/02 01:38:56;;;;;;;6.00;2.90;;;14.40;99.90;;;;;;4966571;28;20023;-83
2023/08/02 01:41:22;;;;;;;3.80;2.53;;;14.40;99.90;;;;;;4968802;28;20782;-82
2023/08/02 01:43:47;;;;;;;5.90;2.45;;;14.40;99.90;;;;;;4967678;28;20023;-83
2023/08/02 01:46:13;;;;;;;3.53;2.60;;;14.40;99.90;;;;;;4967311;28;20065;-82
2023/08/02 01:48:39;;;;;;;5.18;2.55;;;14.30;99.90;;;;;;4968295;28;20156;-83
2023/08/02 01:51:05;;;;;;;5.70;2.70;;;14.30;99.90;;;;;;4967733;28;20078;-83
2023/08/02 01:53:31;;;;;;;4.43;2.42;;;14.30;99.90;;;;;;4968698;28;20032;-82
2023/08/02 01:55:56;;;;;;;3.97;2.42;;;14.20;99.90;;;;;;4968105;28;20084;-82
2023/08/02 01:58:22;;;;;;;5.50;2.20;;;14.30;99.90;;;;;;4967013;28;20062;-82
2023/08/02 02:00:47;;;;;;;4.90;2.30;;;14.20;99.90;;;;;;4967595;28;20069;-83
2023/08/02 02:03:13;;;;;;;3.92;2.58;;;14.10;99.90;;;;;;4967795;28;20189;-83
2023/08/02 02:05:38;;;;;;;4.88;2.40;;;14.10;99.90;;;;;;4967744;28;20042;-83
2023/08/02 02:08:04;;;;;;;4.18;2.50;;;14.10;99.90;;;;;;4966636;28;20034;-83
2023/08/02 02:10:29;;;;;;;4.47;2.38;;;14.00;99.90;;;;;;4967125;28;20054;-83
2023/08/02 02:12:55;;;;;;;5.47;2.45;;;14.00;99.90;;;;;;4968844;28;20027;-84
2023/08/02 02:15:20;;;;;;;4.43;2.08;;;13.90;99.90;;;;;;4967547;28;20024;-84
2023/08/02 02:17:46;;;;;;;8.65;2.83;;;13.90;99.90;;;;;;4965171;28;20035;-83
2023/08/02 02:20:12;;;;;;;6.32;2.75;;;13.90;99.90;;;;;;4967638;28;20058;-83
2023/08/02 02:22:38;;;;;;;5.35;2.50;;;13.80;99.90;;;;;;4966977;28;21111;-83
2023/08/02 02:25:04;;;;;;;4.35;2.60;;;13.80;99.90;;;;;;4968087;28;20022;-83
2023/08/02 02:27:30;;;;;;;4.95;2.50;;;13.70;99.90;;;;;;4966172;28;20020;-83
2023/08/02 02:29:55;;;;;;;6.60;2.53;;;13.70;99.90;;;;;;4967466;28;20039;-83
2023/08/02 02:32:21;;;;;;;5.53;2.40;;;13.70;99.90;;;;;;4967415;28;20027;-82
2023/08/02 02:34:46;;;;;;;5.05;2.60;;;13.60;99.90;;;;;;4967352;28;20038;-83
2023/08/02 02:37:12;;;;;;;5.15;3.03;;;13.60;99.90;;;;;;4965910;28;20502;-83
2023/08/02 02:39:37;;;;;;;4.57;2.40;;;13.50;99.90;;;;;;4967411;28;20478;-83
2023/08/02 02:42:03;;;;;;;4.35;2.70;;;13.50;99.90;;;;;;4967748;28;20421;-83
2023/08/02 02:44:42;;;;;;;6.05;2.90;;;13.50;99.90;;;;;;4967557;28;20026;-82
2023/08/02 02:47:09;;;;;;;4.93;2.67;;;13.40;99.90;;;;;;4965188;28;20122;-84
2023/08/02 02:49:35;;;;;;;6.22;2.88;;;13.40;99.90;;;;;;4966127;28;20035;-83
2023/08/02 02:52:00;;;;;;;5.47;2.90;;;13.30;99.90;;;;;;4967764;28;20042;-83
2023/08/02 02:54:26;;;;;;;7.63;3.00;;;13.30;99.90;;;;;;4966235;28;20059;-83
2023/08/02 02:56:51;;;;;;;3.92;2.38;;;13.20;99.90;;;;;;4967081;28;20127;-83
2023/08/02 02:59:17;;;;;;;6.55;2.80;;;13.20;99.90;;;;;;4967859;28;20026;-83
2023/08/02 03:01:43;;;;;;;5.13;2.90;;;13.20;99.90;;;;;;4966951;28;20089;-83
2023/08/02 03:04:08;;;;;;;6.05;2.95;;;13.10;99.90;;;;;;4967558;28;20047;-83
2023/08/02 03:06:34;;;;;;;4.45;3.05;;;13.10;99.90;;;;;;4965065;28;20069;-82
2023/08/02 03:08:59;;;;;;;3.95;2.78;;;13.10;99.90;;;;;;4966476;28;20042;-82
2023/08/02 03:11:25;;;;;;;5.95;2.80;;;13.10;99.90;;;;;;4966568;28;20039;-82
2023/08/02 03:13:50;;;;;;;4.82;2.97;;;13.00;99.90;;;;;;4966627;28;20097;-83
2023/08/02 03:16:16;;;;;;;4.68;2.63;;;13.00;99.90;;;;;;4965305;28;20019;-82
2023/08/02 03:18:41;;;;;;;5.43;3.20;;;13.00;99.90;;;;;;4966276;28;20050;-83
2023/08/02 03:21:07;;;;;;;6.75;2.75;;;12.90;99.90;;;;;;4965963;28;20161;-83
2023/08/02 03:23:34;;;;;;;6.93;3.05;;;12.90;99.90;;;;;;4964484;28;20038;-83
2023/08/02 03:26:00;;;;;;;5.57;3.15;;;12.90;99.90;;;;;;4965653;28;20675;-83
2023/08/02 03:28:25;;;;;;;7.55;2.97;;;12.90;99.90;;;;;;4963953;28;20064;-83
2023/08/02 03:30:54;;;;;;;5.28;2.55;;;12.80;99.90;;;;;;4966047;28;20124;-82
2023/08/02 03:33:19;;;;;;;5.28;2.97;;;12.80;99.90;;;;;;4961966;28;20030;-82
2023/08/02 03:35:45;;;;;;;4.25;3.00;;;12.80;99.90;;;;;;4964933;28;20054;-83
2023/08/02 03:38:11;;;;;;;4.63;2.88;;;12.80;99.90;;;;;;4965271;28;20026;-82
2023/08/02 03:40:36;;;;;;;5.20;3.00;;;12.70;99.90;;;;;;4969024;28;20030;-83
2023/08/02 03:43:02;;;;;;;5.55;3.03;;;12.70;99.90;;;;;;4964616;28;20023;-83
2023/08/02 03:45:27;;;;;;;5.53;3.05;;;12.70;99.90;;;;;;4963964;28;20077;-83
2023/08/02 03:47:53;;;;;;;7.90;2.80;;;12.70;99.90;;;;;;4963202;28;20027;-82
2023/08/02 03:50:18;;;;;;;9.63;2.70;;;12.70;99.90;;;;;;4963123;28;20165;-83
2023/08/02 03:52:44;;;;;;;6.35;3.15;;;12.70;99.90;;;;;;4963435;28;20023;-83
2023/08/02 03:55:09;;;;;;;8.32;3.00;;;12.60;99.90;;;;;;4961784;28;20029;-83
2023/08/02 03:57:35;;;;;;;5.55;2.55;;;12.60;99.90;;;;;;4960317;28;20028;-82
2023/08/02 04:00:01;;;;;;;7.65;2.80;;;12.60;99.90;;;;;;4959639;28;20028;-83
2023/08/02 04:02:26;;;;;;;8.73;3.17;;;12.60;99.90;;;;;;4961769;28;20043;-83
2023/08/02 04:04:52;;;;;;;5.32;3.20;;;12.60;99.90;;;;;;4961929;28;20055;-83
2023/08/02 04:07:17;;;;;;;4.35;2.85;;;12.60;99.90;;;;;;4964217;28;20086;-83
2023/08/02 04:09:43;;;;;;;5.95;3.00;;;12.60;99.90;;;;;;4965677;28;20023;-83
2023/08/02 04:12:09;;;;;;;5.63;3.13;;;12.60;99.90;;;;;;4966072;28;20034;-83
2023/08/02 04:14:34;;;;;;;4.50;3.00;;;12.60;99.90;;;;;;4965787;28;20023;-82
2023/08/02 04:17:00;;;;;;;6.95;3.10;;;12.60;99.90;;;;;;4969276;28;20039;-83
2023/08/02 04:19:26;;;;;;;5.03;2.78;;;12.70;99.90;;;;;;4965511;28;20030;-83
2023/08/02 04:21:51;;;;;;;7.57;3.10;;;12.70;99.90;;;;;;4964095;28;20501;-83
2023/08/02 04:24:17;;;;;;;4.97;2.92;;;12.70;99.90;;;;;;4963361;28;20058;-82
2023/08/02 04:26:42;;;;;;;6.65;3.13;;;12.80;99.90;;;;;;4961149;28;20023;-82
2023/08/02 04:29:08;;;;;;;6.47;3.92;;;12.80;99.90;;;;;;4962266;28;20041;-82
2023/08/02 04:31:33;;;;;;;8.25;3.40;;;12.90;99.90;;;;;;4962121;28;20031;-82
2023/08/02 04:33:59;;;;;;;4.85;3.33;;;12.90;99.90;;;;;;4961176;28;20038;-81
2023/08/02 04:36:25;;;;;;;7.15;3.25;;;13.00;99.90;;;;;;4959361;28;20028;-82
2023/08/02 04:38:53;;;;;;;4.93;3.28;;;13.10;99.90;;;;;;4961157;28;20046;-81
2023/08/02 04:41:19;;;;;;;6.20;3.40;;;13.20;99.90;;;;;;4962117;28;20065;-82
2023/08/02 04:43:47;;;;;;;6.43;4.10;;;13.30;99.90;;;;;;4962779;28;20034;-82
2023/08/02 04:46:12;;;;;;;5.88;3.10;;;13.30;99.90;;;;;;4962620;28;20421;-82
2023/08/02 04:48:38;;;;;;;7.00;3.33;;;13.40;99.90;;;;;;4961421;28;20031;-82
2023/08/02 04:51:10;;;;;;;5.93;2.80;;;13.50;99.90;;;;;;4962746;28;20487;-82
2023/08/02 04:53:36;;;;;;;5.95;3.45;;;13.50;99.90;;;;;;4961234;28;20034;-82
2023/08/02 04:56:02;;;;;;;7.25;3.22;;;13.60;99.90;;;;;;4962732;28;20159;-84
2023/08/02 04:58:27;;;;;;;6.68;3.90;;;13.70;99.90;;;;;;4962853;28;20157;-82
2023/08/02 05:00:53;;;;;;;6.72;3.25;;;13.80;99.90;;;;;;4963479;28;20058;-82
2023/08/02 05:03:18;;;;;;;6.13;2.92;;;13.80;99.90;;;;;;4962038;28;20393;-82
2023/08/02 05:05:44;;;;;;;5.82;3.08;;;13.90;99.90;;;;;;4963390;28;21076;-82
2023/08/02 05:08:10;;;;;;;6.85;3.25;;;13.90;99.90;;;;;;4961552;28;20038;-82
2023/08/02 05:10:38;;;;;;;4.68;2.95;;;14.00;99.90;;;;;;4962485;28;20023;-81
2023/08/02 05:13:05;;;;;;;5.28;3.05;;;14.00;99.90;;;;;;4962672;28;20030;-80
2023/08/02 05:15:36;;;;;;;4.72;2.92;;;14.10;99.90;;;;;;4962544;28;20038;-80
2023/08/02 05:18:01;;;;;;;4.47;2.92;;;14.20;99.90;;;;;;4962767;28;20054;-81
2023/08/02 05:20:31;;;;;;;7.40;3.00;;;14.20;99.90;;;;;;4963316;28;20031;-81
2023/08/02 05:22:57;;;;;;;4.93;2.70;;;14.30;99.90;;;;;;4962525;28;20509;-81
2023/08/02 05:25:27;;;;;;;6.55;2.97;;;14.30;99.90;;;;;;4963094;28;20118;-81
2023/08/02 05:27:53;;;;;;;5.78;3.05;;;14.40;99.90;;;;;;4961952;28;20085;-82
2023/08/02 05:30:19;;;;;;;5.47;3.00;;;14.50;99.90;;;;;;4961509;28;20104;-82
2023/08/02 05:32:48;;;;;;;7.05;2.50;;;14.60;99.90;;;;;;4962209;28;20036;-81
2023/08/02 05:35:13;;;;;;;5.93;3.10;;;14.70;99.90;;;;;;4961746;28;20058;-81
2023/08/02 05:37:39;;;;;;;6.68;2.63;;;14.70;99.90;;;;;;4962574;28;20083;-81
2023/08/02 05:40:05;;;;;;;4.75;2.53;;;14.80;99.90;;;;;;4963494;28;20063;-80
2023/08/02 05:42:31;;;;;;;4.97;2.58;;;14.80;99.90;;;;;;4961622;28;21336;-81
2023/08/02 05:44:57;;;;;;;10.23;2.75;;;14.90;99.90;;;;;;4961820;28;20050;-85
2023/08/02 05:47:22;;;;;;;4.13;2.40;;;14.90;99.90;;;;;;4964064;28;20018;-80
2023/08/02 05:49:48;;;;;;;4.75;2.55;;;15.00;99.90;;;;;;4959913;28;20046;-80
2023/08/02 05:52:14;;;;;;;3.67;2.40;;;15.00;99.90;;;;;;4961687;28;20037;-81
2023/08/02 05:54:40;;;;;;;4.97;2.60;;;15.00;99.90;;;;;;4960878;28;20019;-81
2023/08/02 05:57:07;;;;;;;4.40;2.85;;;15.00;99.90;;;;;;4962513;28;20149;-80
2023/08/02 05:59:33;;;;;;;6.25;2.85;;;15.10;99.90;;;;;;4961329;28;20018;-81
2023/08/02 06:01:59;;;;;;;5.25;2.30;;;15.10;99.90;;;;;;4962643;28;20132;-81
2023/08/02 06:04:25;;;;;;;6.30;2.83;;;15.10;99.90;;;;;;4961575;28;20027;-81
2023/08/02 06:06:50;;;;;;;4.38;2.72;;;15.20;99.90;;;;;;4959798;28;20125;-77
2023/08/02 06:09:16;;;;;;;4.35;2.72;;;15.20;99.90;;;;;;4957843;28;20042;-76
2023/08/02 06:11:41;;;;;;;4.50;2.53;;;15.30;99.90;;;;;;4956061;28;21364;-77
2023/08/02 06:14:07;;;;;;;5.97;2.78;;;15.30;99.90;;;;;;4959177;28;20114;-76
2023/08/02 06:16:32;;;;;;;6.10;2.45;;;15.40;99.90;;;;;;4958397;28;20577;-76
2023/08/02 06:18:58;;;;;;;4.82;2.60;;;15.40;99.90;;;;;;4956793;28;20451;-77
2023/08/02 06:21:24;;;;;;;5.78;2.60;;;15.50;99.90;;;;;;4955896;28;20035;-77
2023/08/02 06:23:49;;;;;;;6.47;2.53;;;15.50;99.90;;;;;;4956207;28;20126;-76
2023/08/02 06:26:15;;;;;;;7.18;2.65;;;15.60;99.90;;;;;;4956026;28;20434;-76
2023/08/02 06:28:41;;;;;;;7.32;2.50;;;15.60;99.90;;;;;;4958018;28;20027;-76
2023/08/02 06:31:07;;;;;;;3.85;2.33;;;15.70;99.90;;;;;;4956349;28;20160;-76
2023/08/02 06:33:32;;;;;;;7.72;2.30;;;15.70;99.90;;;;;;4957090;28;20026;-76
2023/08/02 06:35:58;;;;;;;5.85;2.65;;;15.80;99.90;;;;;;4958266;28;20030;-77
2023/08/02 06:38:23;;;;;;;3.03;2.28;;;15.80;99.90;;;;;;4957633;28;20590;-76
2023/08/02 06:40:49;;;;;;;4.10;2.50;;;15.80;99.90;;;;;;4956437;28;20038;-76
2023/08/02 06:43:14;;;;;;;6.22;2.80;;;15.90;99.90;;;;;;4958107;28;20034;-82
2023/08/02 06:45:47;;;;;;;5.10;2.83;;;15.90;99.90;;;;;;4959214;28;20128;-82
2023/08/02 06:48:13;;;;;;;6.18;2.70;;;15.90;99.90;;;;;;4955872;28;20093;-84
2023/08/02 06:50:39;;;;;;;5.40;2.40;;;15.90;99.90;;;;;;4957175;28;20027;-82
2023/08/02 06:53:07;;;;;;;3.97;2.10;;;15.90;99.90;;;;;;4957560;28;20085;-83
2023/08/02 06:55:33;;;;;;;4.53;2.30;;;15.90;99.90;;;;;;4956891;28;20050;-83
2023/08/02 06:57:58;;;;;;;6.30;2.88;;;15.90;99.90;;;;;;4955856;28;20031;-82
2023/08/02 07:00:24;;;;;;;5.97;2.42;;;15.90;99.90;;;;;;4957531;28;20049;-83
2023/08/02 07:02:49;;;;;;;3.70;2.30;;;15.80;99.90;;;;;;4957880;28;20042;-82
2023/08/02 07:05:15;;;;;;;4.97;2.55;;;15.80;99.90;;;;;;4954514;28;20042;-82
2023/08/02 07:07:40;;;;;;;6.22;2.40;;;15.80;99.90;;;;;;4954463;28;20039;-82
2023/08/02 07:10:06;;;;;;;7.15;2.58;;;15.80;99.90;;;;;;4955996;28;20053;-81
2023/08/02 07:12:31;;;;;;;6.43;2.85;;;15.80;99.90;;;;;;4956039;28;20038;-81
2023/08/02 07:14:57;;;;;;;5.78;2.90;;;15.80;99.90;;;;;;4957145;28;20050;-82
2023/08/02 07:17:22;;;;;;;3.90;2.47;;;15.80;99.90;;;;;;4953710;28;20081;-81
2023/08/02 07:19:48;;;;;;;4.50;2.55;;;15.80;99.90;;;;;;4949905;28;20055;-83
2023/08/02 07:22:17;;;;;;;4.10;2.95;;;15.80;99.90;;;;;;4927353;28;20360;-83
2023/08/02 07:24:43;;;;;;;4.95;2.88;;;15.80;99.90;;;;;;4942332;28;20061;-84
2023/08/02 07:27:10;;;;;;;5.15;2.60;;;15.80;99.90;;;;;;4930006;28;20670;-83
2023/08/02 07:29:35;;;;;;;6.70;2.58;;;15.90;99.90;;;;;;4944157;28;20212;-82
2023/08/02 07:32:01;;;;;;;5.80;2.42;;;15.90;99.90;;;;;;4944601;28;21058;-82
2023/08/02 07:34:27;;;;;;;5.45;2.80;;;15.90;99.90;;;;;;4931881;28;20027;-83
2023/08/02 07:36:52;;;;;;;4.95;2.72;;;16.00;99.90;;;;;;4927253;28;20053;-83
2023/08/02 07:39:18;;;;;;;4.22;2.63;;;16.00;99.90;;;;;;4954465;28;20027;-83
2023/08/02 07:41:43;;;;;;;4.65;2.40;;;16.10;99.90;;;;;;4955176;28;20031;-83
2023/08/02 07:44:09;;;;;;;6.35;2.88;;;16.10;99.90;;;;;;4956763;28;20811;-83
2023/08/02 07:46:35;;;;;;;6.32;2.67;;;16.20;99.90;;;;;;4954787;28;20057;-84
2023/08/02 07:49:00;;;;;;;6.35;2.55;;;16.20;99.90;;;;;;4952907;28;20074;-84
2023/08/02 07:51:26;;;;;;;4.53;2.50;;;16.20;99.90;;;;;;4952516;28;20168;-84
2023/08/02 07:53:51;;;;;;;7.75;2.40;;;16.20;99.90;;;;;;4953918;28;20030;-84
2023/08/02 07:56:17;;;;;;;6.05;2.75;;;16.20;99.90;;;;;;4953375;28;20508;-84
2023/08/02 07:58:43;;;;;;;5.60;2.80;;;16.30;99.90;;;;;;4952167;28;20047;-84
2023/08/02 08:01:10;;;;;;;5.82;2.60;;;16.30;99.90;;;;;;4953882;28;20054;-83
2023/08/02 08:03:36;;;;;;;5.85;2.67;;;16.30;99.90;;;;;;4954121;28;20106;-83
2023/08/02 08:06:12;;;;;;;4.57;2.60;;;16.40;99.90;;;;;;4956547;28;20490;-84
2023/08/02 08:08:38;;;;;;;5.65;3.13;;;16.40;99.90;;;;;;4956257;28;20513;-83
2023/08/02 08:11:04;;;;;;;4.28;2.35;;;16.40;99.90;;;;;;4958919;28;20038;-84
2023/08/02 08:13:29;;;;;;;3.92;2.60;;;16.40;99.90;;;;;;4956446;28;21017;-84
2023/08/02 08:15:55;;;;;;;3.75;2.65;;;16.40;99.90;;;;;;4958048;28;20046;-83
2023/08/02 08:18:20;;;;;;;4.30;2.40;;;16.40;99.90;;;;;;4956122;28;20129;-83
2023/08/02 08:20:46;;;;;;;5.80;2.70;;;16.50;99.90;;;;;;4960518;28;20074;-83
2023/08/02 08:23:11;;;;;;;5.28;2.90;;;16.50;99.90;;;;;;4960610;28;20062;-83
2023/08/02 08:25:37;;;;;;;6.07;2.67;;;16.40;99.90;;;;;;4959423;28;20092;-82
2023/08/02 08:28:03;;;;;;;5.97;3.00;;;16.40;99.90;;;;;;4958797;28;20026;-83
2023/08/02 08:30:28;;;;;;;8.07;3.35;;;16.50;99.90;;;;;;4959533;28;20038;-83
2023/08/02 08:32:54;;;;;;;6.85;2.78;;;16.40;99.90;;;;;;4960668;28;20025;-84
2023/08/02 08:35:20;;;;;;;7.20;2.78;;;16.50;99.90;;;;;;4962276;28;20046;-83
2023/08/02 08:37:49;;;;;;;4.53;2.60;;;16.50;99.90;;;;;;4959304;28;20031;-82
2023/08/02 08:40:17;;;;;;;4.03;2.80;;;16.60;99.90;;;;;;4949092;28;20090;-83
2023/08/02 08:42:53;;;;;;;3.88;2.47;;;16.70;99.90;;;;;;4933407;28;20073;-84
2023/08/02 08:45:21;;;;;;;3.85;2.70;;;16.70;99.90;;;;;;4933796;28;20031;-84
2023/08/02 08:47:48;;;;;;;4.70;2.75;;;16.70;99.90;;;;;;4935266;28;20090;-83
2023/08/02 08:50:15;;;;;;;4.35;2.80;;;16.70;99.90;;;;;;4932095;28;20726;-83
2023/08/02 08:52:46;;;;;;;4.28;2.53;;;16.70;99.90;;;;;;4933578;28;20042;-84
2023/08/02 08:55:16;;;;;;;5.10;3.03;;;16.80;99.90;;;;;;4938131;28;20044;-83
2023/08/02 08:57:43;;;;;;;5.03;3.00;;;16.80;99.90;;;;;;4958419;28;20034;-83
2023/08/02 09:00:10;;;;;;;11.30;2.90;;;16.80;99.90;;;;;;4959024;28;20035;-83
2023/08/02 09:02:39;;;;;;;4.00;2.65;;;16.90;99.90;;;;;;4961641;28;20125;-83
2023/08/02 09:05:05;;;;;;;5.07;2.60;;;16.90;99.90;;;;;;4958720;28;20049;-83
2023/08/02 09:07:33;;;;;;;6.50;2.95;;;17.00;99.90;;;;;;4958132;28;20027;-83
2023/08/02 09:09:59;;;;;;;6.82;2.85;;;17.00;99.90;;;;;;4958224;28;20150;-83
2023/08/02 09:12:25;;;;;;;5.13;2.83;;;17.00;99.90;;;;;;4959009;28;20146;-83
2023/08/02 09:15:04;;;;;;;4.93;2.40;;;16.90;99.90;;;;;;4959253;28;20031;-83
2023/08/02 09:17:46;;;;;;;4.38;2.67;;;17.00;99.90;;;;;;4959853;28;20105;-82
2023/08/02 09:20:12;;;;;;;6.18;3.13;;;17.00;99.90;;;;;;4958078;28;20047;-84
2023/08/02 09:22:38;;;;;;;5.00;2.70;;;17.10;99.90;;;;;;4957319;28;20073;-84
2023/08/02 09:25:07;;;;;;;7.32;2.92;;;17.20;99.90;;;;;;4954919;28;20027;-83
2023/08/02 09:27:34;;;;;;;3.63;2.50;;;17.20;99.90;;;;;;4957258;28;20031;-83
2023/08/02 09:29:59;;;;;;;4.60;2.58;;;17.20;99.90;;;;;;4957972;28;20034;-84
2023/08/02 09:32:26;;;;;;;4.18;2.40;;;17.20;99.90;;;;;;4958069;28;20034;-83
2023/08/02 09:34:58;;;;;;;5.13;2.67;;;17.20;99.90;;;;;;4954960;28;20034;-84
2023/08/02 09:37:36;;;;;;;6.63;2.80;;;17.10;99.90;;;;;;4958610;28;20026;-83
2023/08/02 09:40:11;;;;;;;3.83;2.60;;;17.00;99.90;;;;;;4959698;28;20529;-83
2023/08/02 09:42:37;;;;;;;;;;;17.00;99.90;;;;;;4957859;28;20034;-86
2023/08/02 09:45:03;;;;;;;6.22;3.05;;;16.90;99.90;;;;;;4956739;28;19938;-83
2023/08/02 09:47:29;;;;;;;4.65;2.83;;;16.80;99.90;;;;;;4957871;28;20027;-83
2023/08/02 09:50:07;;;;;;;5.57;3.15;;;16.80;99.90;;;;;;4956650;28;20026;-82
2023/08/02 09:52:33;;;;;;;6.43;2.88;;;16.70;99.90;;;;;;4960351;28;20049;-82
2023/08/02 09:54:59;;;;;;;4.03;2.70;;;16.70;99.90;;;;;;4960908;28;20091;-82
2023/08/02 09:57:27;;;;;;;6.28;2.80;;;16.60;99.90;;;;;;4962501;28;20165;-82
2023/08/02 09:59:55;;;;;;;4.93;2.70;;;16.60;99.90;;;;;;4962768;28;20125;-82
2023/08/02 10:02:25;;;;;;;5.10;2.70;;;16.50;99.90;;;;;;4964467;28;20047;-82
2023/08/02 10:04:58;;;;;;;5.00;2.78;;;16.40;99.90;;;;;;4963373;28;20034;-82
2023/08/02 10:07:38;;;;;;;5.30;2.80;;;16.40;99.90;;;;;;4962062;28;20034;-83
2023/08/02 10:10:24;;;;;;;5.95;2.90;;;16.40;99.90;;;;;;4963559;28;20035;-83
2023/08/02 10:12:55;;;;;;;4.45;2.88;;;16.40;99.90;;;;;;4962432;28;20109;-83
2023/08/02 10:15:22;;;;;;;5.78;3.15;;;16.40;99.90;;;;;;4962515;28;20040;-82
2023/08/02 10:17:48;;;;;;;5.13;2.90;;;16.40;99.90;;;;;;4963363;28;20026;-83
2023/08/02 10:20:14;;;;;;;6.10;3.20;;;16.40;99.90;;;;;;4962127;28;20031;-83
2023/08/02 10:22:44;;;;;;;4.55;3.40;;;16.40;99.90;;;;;;4961777;28;21519;-85
2023/08/02 10:25:10;;;;;;;6.47;3.60;;;16.50;99.90;;;;;;4961771;28;20042;-83
2023/08/02 10:27:37;;;;;;;5.53;3.25;;;16.50;99.90;;;;;;4963638;28;20046;-82
2023/08/02 10:30:04;;;;;;;7.53;3.70;;;16.60;99.90;;;;;;4958143;28;20058;-84
2023/08/02 10:32:30;;;;;;;6.70;3.50;;;16.60;99.90;;;;;;4957303;28;20075;-82
2023/08/02 10:34:56;;;;;;;5.30;3.10;;;16.60;99.90;;;;;;4959592;28;20810;-84
2023/08/02 10:37:22;;;;;;;5.22;3.45;;;16.60;99.90;;;;;;4959310;28;20019;-83
2023/08/02 10:39:48;;;;;;;5.50;3.13;;;16.60;99.90;;;;;;4956833;28;20031;-84
2023/08/02 10:42:15;;;;;;;5.13;3.13;;;16.70;99.90;;;;;;4957382;28;20031;-83
2023/08/02 10:44:56;;;;;;;5.40;2.90;;;16.70;99.90;;;;;;4960834;28;20126;-83
2023/08/02 10:47:27;;;;;;;5.22;3.08;;;16.70;99.90;;;;;;4959484;28;20038;-83
2023/08/02 10:49:54;;;;;;;8.10;3.17;;;16.80;99.90;;;;;;4956617;28;20034;-82
2023/08/02 10:52:24;;;;;;;3.95;2.75;;;17.00;99.90;;;;;;4957113;28;20023;-82
2023/08/02 10:55:19;;;;;;;12.65;3.10;;;17.10;99.90;;;;;;4956214;28;20031;-83
2023/08/02 10:57:56;;;;;;;5.22;2.72;;;17.30;99.90;;;;;;4956851;28;20065;-83
2023/08/02 11:00:25;;;;;;;4.65;2.60;;;17.50;99.90;;;;;;4953955;28;20030;-83
2023/08/02 11:02:52;;;;;;;11.50;2.80;;;17.70;99.90;;;;;;4955602;28;20042;-85
2023/08/02 11:05:37;;;;;;;5.25;3.13;;;18.00;99.90;;;;;;4954566;28;20097;-83
2023/08/02 11:08:03;;;;;;;9.07;3.15;;;18.40;99.90;;;;;;4956080;28;20031;-85
2023/08/02 11:10:28;;;;;;;4.35;2.65;;;18.70;99.90;;;;;;4956152;28;20062;-83
2023/08/02 11:12:55;;;;;;;4.25;2.70;;;19.00;99.90;;;;;;4959155;28;20030;-83
2023/08/02 11:15:21;;;;;;;4.47;2.35;;;19.10;99.90;;;;;;4956121;28;20038;-84
2023/08/02 11:17:55;;;;;;;4.60;2.42;;;19.30;99.90;;;;;;4954929;28;20741;-83
2023/08/02 11:20:26;;;;;;;3.65;2.47;;;19.70;99.90;;;;;;4954829;28;21380;-83
2023/08/02 11:22:52;;;;;;;5.45;2.55;;;20.10;99.90;;;;;;4957581;28;20035;-83
2023/08/02 11:25:19;;;;;;;3.63;2.50;;;20.30;99.90;;;;;;4957599;28;20061;-83
2023/08/02 11:27:45;;;;;;;4.85;2.30;;;20.60;99.90;;;;;;4955897;28;20074;-84
2023/08/02 11:30:10;;;;;;;6.00;2.25;;;21.00;99.90;;;;;;4952725;28;20035;-83
2023/08/02 11:32:43;;;;;;;5.47;2.60;;;21.30;99.90;;;;;;4958206;28;20077;-83
2023/08/02 11:35:15;;;;;;;5.57;2.40;;;21.60;99.90;;;;;;4956348;28;20102;-85
2023/08/02 11:37:41;;;;;;;7.43;2.30;;;21.60;99.90;;;;;;4955908;28;20034;-84
2023/08/02 11:40:07;;;;;;;3.80;2.10;;;21.40;99.90;;;;;;4953649;28;20046;-84
2023/08/02 11:42:44;;;;;;;8.30;2.45;;;21.30;99.90;;;;;;4956544;28;20444;-84
2023/08/02 11:45:09;;;;;;;3.55;2.03;;;21.20;99.90;;;;;;4955615;28;20057;-84
2023/08/02 11:47:36;;;;;;;4.30;2.22;;;21.20;99.90;;;;;;4956059;28;20146;-84
2023/08/02 11:50:01;;;;;;;4.82;2.15;;;21.30;99.90;;;;;;4954038;28;20037;-85
2023/08/02 11:52:29;;;;;;;3.40;2.13;;;21.60;99.90;;;;;;4956371;28;20061;-84
2023/08/02 11:54:55;;;;;;;3.45;1.98;;;22.10;99.90;;;;;;4957552;28;21079;-85
2023/08/02 11:57:22;;;;;;;3.10;2.00;;;22.60;99.90;;;;;;4958173;28;20070;-84
2023/08/02 11:59:51;;;;;;;2.60;1.88;;;23.00;99.90;;;;;;4958824;28;20038;-84
2023/08/02 12:02:30;;;;;;;3.53;2.08;;;23.20;99.90;;;;;;4961143;28;20093;-84
2023/08/02 12:04:57;;;;;;;4.38;2.13;;;23.50;99.90;;;;;;4961302;28;21129;-83
2023/08/02 12:07:26;;;;;;;3.78;2.20;;;23.90;99.90;;;;;;4962861;28;20050;-84
2023/08/02 12:09:52;;;;;;;4.88;1.85;;;24.10;99.90;;;;;;4961504;28;20027;-83
2023/08/02 12:12:17;;;;;;;3.08;2.10;;;24.40;99.90;;;;;;4967261;28;20078;-83
2023/08/02 12:14:43;;;;;;;2.95;2.10;;;24.50;99.90;;;;;;4967062;28;20034;-82
2023/08/02 12:17:19;;;;;;;4.38;2.00;;;24.70;99.90;;;;;;4964367;28;20061;-83
2023/08/02 12:19:45;;;;;;;3.83;2.20;;;25.00;99.90;;;;;;4961739;28;20747;-80
2023/08/02 12:22:11;;;;;;;4.90;2.40;;;25.40;99.90;;;;;;4959086;28;20033;-76
2023/08/02 12:24:37;;;;;;;5.47;2.30;;;25.90;99.90;;;;;;4960229;28;20160;-77
2023/08/02 12:27:16;;;;;;;3.67;2.20;;;26.10;99.90;;;;;;4959711;28;20494;-77
2023/08/02 12:29:43;;;;;;;2.28;1.73;;;26.60;99.90;;;;;;4959689;28;20035;-77
2023/08/02 12:32:27;;;;;;;3.17;2.10;;;26.80;99.90;;;;;;4960152;28;20133;-77
2023/08/02 12:34:53;;;;;;;5.03;1.90;;;26.70;99.90;;;;;;4959501;28;20041;-77
2023/08/02 12:37:18;;;;;;;3.53;1.52;;;26.70;99.90;;;;;;4959686;28;20116;-77
2023/08/02 12:39:44;;;;;;;3.10;1.98;;;26.90;99.90;;;;;;4960713;28;20035;-76
2023/08/02 12:42:09;;;;;;;2.35;1.60;;;26.70;99.90;;;;;;4958771;28;20023;-79
2023/08/02 12:44:35;;;;;;;2.50;1.70;;;26.90;99.90;;;;;;4959626;28;20101;-79
2023/08/02 12:47:00;;;;;;;3.60;1.73;;;27.00;99.90;;;;;;4962285;28;20027;-79